Time;durP1;ratioP1;P1;durP2;ratioP2;P2;SDS_P1;SDS_P2;PMS_P1;PMS_P2;Temp;Humidity;BMP_temperature;BMP_pressure;BME280_temperature;BME280_humidity;BME280_pressure;Samples;Min_cycle;Max_cycle;Signal;HPM_P1;HPM_P2
2022/04/16 00:00:46;;;;;;;4.53;3.53;;;;;;;12.10;55.65;100156.91;4173194;28;20260;-60
2022/04/16 00:02:49;;;;;;;5.63;3.90;;;;;;;12.11;55.42;100153.25;4173186;28;20279;-59
2022/04/16 00:04:50;;;;;;;4.03;3.40;;;;;;;11.51;55.68;100218.75;4168083;28;20671;-59
2022/04/16 00:06:52;;;;;;;3.80;3.50;;;;;;;12.14;55.53;100155.59;4149635;28;20477;-60
2022/04/16 00:08:53;;;;;;;4.10;3.57;;;;;;;11.89;55.73;100173.28;4169643;28;20276;-59
2022/04/16 00:10:56;;;;;;;4.23;3.83;;;;;;;11.57;56.56;100190.66;4173608;28;20278;-59
2022/04/16 00:12:58;;;;;;;4.57;3.83;;;;;;;11.86;56.18;100154.94;4171833;28;20607;-60
2022/04/16 00:15:00;;;;;;;4.77;3.50;;;;;;;11.65;55.85;100176.59;4174651;28;20258;-59
2022/04/16 00:17:02;;;;;;;4.10;3.70;;;;;;;11.81;55.59;100179.34;4174355;28;20323;-59
2022/04/16 00:19:04;;;;;;;4.00;3.60;;;;;;;11.87;55.79;100167.28;4173417;28;20236;-59
2022/04/16 00:21:06;;;;;;;4.00;3.70;;;;;;;11.45;56.15;100206.06;4174643;28;20260;-58
2022/04/16 00:23:08;;;;;;;5.50;3.73;;;;;;;11.95;55.91;100158.47;4159349;28;20320;-60
2022/04/16 00:25:11;;;;;;;4.23;3.80;;;;;;;12.11;55.29;100151.41;4176548;28;20252;-59
2022/04/16 00:27:13;;;;;;;8.40;3.30;;;;;;;11.70;55.99;100177.78;4174308;28;20314;-60
2022/04/16 00:29:15;;;;;;;5.73;3.70;;;;;;;11.68;55.64;100193.09;4174831;28;20262;-58
2022/04/16 00:31:17;;;;;;;3.93;3.53;;;;;;;12.19;54.98;100149.78;4176715;28;20251;-59
2022/04/16 00:33:19;;;;;;;5.43;4.00;;;;;;;11.60;56.52;100163.72;4157880;28;20255;-60
2022/04/16 00:35:23;;;;;;;5.30;4.00;;;;;;;11.81;56.01;100146.53;4173260;28;20259;-59
2022/04/16 00:37:25;;;;;;;5.50;3.83;;;;;;;11.58;56.85;100163.06;4175915;28;20358;-59
2022/04/16 00:39:27;;;;;;;4.50;3.63;;;;;;;11.62;56.43;100158.25;4173222;28;20655;-59
2022/04/16 00:41:28;;;;;;;4.27;3.63;;;;;;;11.99;55.10;100155.34;4176343;28;20263;-60
2022/04/16 00:43:30;;;;;;;4.13;3.73;;;;;;;11.26;57.40;100156.47;4177305;28;20232;-59
2022/04/16 00:45:32;;;;;;;5.37;3.40;;;;;;;11.07;57.88;100154.81;4173680;28;20251;-59
2022/04/16 00:47:36;;;;;;;4.17;3.70;;;;;;;11.74;56.02;100149.81;4174464;28;20235;-60
2022/04/16 00:49:38;;;;;;;4.57;3.47;;;;;;;11.89;55.65;100151.97;4174496;28;20693;-60
2022/04/16 00:51:43;;;;;;;4.33;3.57;;;;;;;11.44;55.67;100192.91;4175211;28;20266;-59
2022/04/16 00:53:45;;;;;;;4.17;3.80;;;;;;;11.74;55.98;100160.47;4172812;28;20508;-59
2022/04/16 00:55:47;;;;;;;5.57;3.60;;;;;;;11.31;56.93;100162.19;4173654;28;20685;-59
2022/04/16 00:57:48;;;;;;;3.77;3.37;;;;;;;11.57;55.96;100157.88;4172552;28;20263;-59
2022/04/16 00:59:50;;;;;;;5.67;3.60;;;;;;;10.43;59.08;100177.84;4170801;28;20267;-59
2022/04/16 01:01:52;;;;;;;4.13;3.40;;;;;;;11.49;56.54;100134.69;4172608;28;20390;-58
2022/04/16 01:03:54;;;;;;;5.00;3.70;;;;;;;11.18;56.77;100169.72;4172517;28;20390;-57
2022/04/16 01:05:55;;;;;;;7.17;3.47;;;;;;;11.23;57.01;100158.63;4171128;28;20342;-58
2022/04/16 01:08:01;;;;;;;5.37;3.80;;;;;;;11.28;56.59;100166.97;4174791;28;20682;-59
2022/04/16 01:10:04;;;;;;;4.50;4.03;;;;;;;11.23;57.24;100158.63;4156447;28;20285;-57
2022/04/16 01:12:06;;;;;;;5.53;4.00;;;;;;;10.77;57.71;100186.13;4154555;28;20271;-58
2022/04/16 01:14:08;;;;;;;4.83;3.97;;;;;;;10.87;57.74;100156.78;4165779;28;20274;-59
2022/04/16 01:16:09;;;;;;;4.93;3.70;;;;;;;11.14;57.21;100152.41;4161765;28;20235;-58
2022/04/16 01:18:12;;;;;;;4.97;3.87;;;;;;;11.05;57.84;100158.63;4173744;28;20419;-60
2022/04/16 01:20:15;;;;;;;4.10;3.70;;;;;;;11.18;57.31;100153.75;4172061;28;20755;-60
2022/04/16 01:22:17;;;;;;;4.30;3.90;;;;;;;11.46;56.38;100158.94;4172469;28;20278;-58
2022/04/16 01:24:18;;;;;;;4.57;3.80;;;;;;;11.08;56.88;100187.59;4171761;28;20755;-59
2022/04/16 01:26:22;;;;;;;4.97;3.97;;;;;;;10.77;58.18;100158.69;4170988;28;20282;-60
2022/04/16 01:28:24;;;;;;;5.13;3.73;;;;;;;11.49;56.44;100137.34;4174304;28;20838;-59
2022/04/16 01:30:26;;;;;;;4.23;3.63;;;;;;;11.63;56.25;100133.28;4174756;28;20260;-59
2022/04/16 01:32:27;;;;;;;4.30;3.90;;;;;;;11.02;56.79;100181.06;4173872;28;20323;-58
2022/04/16 01:34:29;;;;;;;4.37;3.97;;;;;;;11.25;56.59;100167.28;4174673;28;20228;-58
2022/04/16 01:36:34;;;;;;;3.97;3.67;;;;;;;11.52;56.00;100153.84;4175729;28;20255;-59
2022/04/16 01:38:36;;;;;;;4.37;3.97;;;;;;;11.14;57.23;100165.69;4158821;28;20256;-59
2022/04/16 01:40:38;;;;;;;5.17;3.90;;;;;;;11.45;56.43;100158.13;4172205;28;20549;-58
2022/04/16 01:42:41;;;;;;;5.37;4.50;;;;;;;11.47;56.42;100155.31;4172151;28;20590;-58
2022/04/16 01:44:43;;;;;;;4.60;4.20;;;;;;;11.05;57.41;100166.59;4173057;28;20311;-58
2022/04/16 01:46:44;;;;;;;4.87;4.07;;;;;;;10.82;58.15;100164.41;4171367;28;20267;-59
2022/04/16 01:48:49;;;;;;;4.70;4.20;;;;;;;10.71;58.39;100173.38;4173392;28;20319;-60
2022/04/16 01:50:50;;;;;;;4.50;4.10;;;;;;;11.02;57.06;100181.06;4170363;28;20319;-59
2022/04/16 01:52:52;;;;;;;6.70;4.10;;;;;;;11.01;57.59;100160.75;4173947;28;20325;-58
2022/04/16 01:54:54;;;;;;;6.10;4.40;;;;;;;11.62;56.25;100136.94;4173478;28;20334;-59
2022/04/16 01:56:56;;;;;;;6.43;4.43;;;;;;;10.55;58.35;100191.78;4173642;28;20259;-59
2022/04/16 01:58:58;;;;;;;4.50;4.10;;;;;;;11.60;55.86;100147.75;4175360;28;20326;-59
2022/04/16 02:00:59;;;;;;;4.97;4.47;;;;;;;11.53;55.92;100170.69;4171091;28;20243;-56
2022/04/16 02:03:02;;;;;;;5.20;4.67;;;;;;;11.78;55.46;100153.03;4157565;28;20240;-59
2022/04/16 02:05:08;;;;;;;5.50;4.90;;;;;;;10.81;57.50;100205.28;4173897;28;20326;-60
2022/04/16 02:07:09;;;;;;;5.13;4.23;;;;;;;10.70;58.01;100178.84;4175133;28;20266;-59
2022/04/16 02:09:11;;;;;;;5.37;4.60;;;;;;;11.05;57.44;100167.44;4174715;28;20315;-57
2022/04/16 02:11:13;;;;;;;5.77;4.37;;;;;;;11.22;57.07;100168.41;4171256;28;20303;-59
2022/04/16 02:13:15;;;;;;;4.63;4.13;;;;;;;10.66;57.51;100210.22;4159014;28;20258;-60
2022/04/16 02:15:16;;;;;;;6.83;4.47;;;;;;;10.49;59.12;100176.44;4174285;28;20323;-60
2022/04/16 02:17:18;;;;;;;9.33;6.50;;;;;;;11.51;55.85;100148.66;4170106;28;20335;-59
2022/04/16 02:19:20;;;;;;;13.03;9.40;;;;;;;10.02;59.01;100233.13;4171554;28;20595;-59
2022/04/16 02:21:22;;;;;;;16.77;10.70;;;;;;;10.89;58.06;100162.78;4175744;28;20236;-58
2022/04/16 02:23:25;;;;;;;16.10;10.97;;;;;;;10.69;58.17;100178.00;4173023;28;20720;-59
2022/04/16 02:25:27;;;;;;;20.67;15.07;;;;;;;10.98;57.57;100177.00;4173899;28;20755;-60
2022/04/16 02:27:28;;;;;;;17.33;11.30;;;;;;;10.38;59.06;100199.59;4171538;28;20320;-60
2022/04/16 02:29:31;;;;;;;11.67;8.77;;;;;;;10.07;59.51;100220.25;4172677;28;20326;-59
2022/04/16 02:31:33;;;;;;;7.90;6.50;;;;;;;11.22;57.01;100164.91;4156929;28;20308;-59
2022/04/16 02:33:36;;;;;;;6.03;4.90;;;;;;;11.54;56.38;100145.69;4170995;28;20552;-59
2022/04/16 02:35:39;;;;;;;5.43;4.40;;;;;;;11.60;55.97;100154.91;4175103;28;20235;-59
2022/04/16 02:37:42;;;;;;;6.57;4.90;;;;;;;11.72;55.53;100146.50;4174013;28;20804;-58
2022/04/16 02:39:43;;;;;;;5.50;5.00;;;;;;;11.06;57.01;100186.91;4171005;28;20290;-58
2022/04/16 02:41:45;;;;;;;4.93;4.43;;;;;;;10.73;57.30;100237.06;4170796;28;20275;-58
2022/04/16 02:43:47;;;;;;;6.83;4.47;;;;;;;11.23;56.70;100190.56;4171804;28;20808;-59
2022/04/16 02:48:09;;;;;;;6.83;4.63;;;;;;;10.51;58.03;100241.78;4174201;28;20704;-60
2022/04/16 02:50:11;;;;;;;4.40;4.00;;;;;;;10.51;58.33;100193.91;4169426;28;20326;-59
2022/04/16 02:52:13;;;;;;;4.83;4.30;;;;;;;10.61;58.13;100197.34;4170283;28;20246;-60
2022/04/16 02:54:15;;;;;;;5.10;4.53;;;;;;;10.94;57.93;100179.13;4177940;28;20729;-59
2022/04/16 02:56:17;;;;;;;5.40;4.43;;;;;;;10.91;57.70;100168.78;4169366;28;20254;-59
2022/04/16 02:58:19;;;;;;;5.30;4.50;;;;;;;11.12;56.63;100183.63;4155946;28;20686;-58
2022/04/16 03:00:21;;;;;;;5.50;4.60;;;;;;;11.06;56.87;100192.22;4167266;28;20263;-60
2022/04/16 03:02:23;;;;;;;5.27;4.67;;;;;;;10.98;57.00;100201.78;4173414;28;20228;-60
2022/04/16 03:04:26;;;;;;;5.00;4.50;;;;;;;11.37;55.74;100195.34;4170430;28;20267;-60
2022/04/16 03:06:28;;;;;;;5.03;4.23;;;;;;;11.18;56.22;100212.31;4169347;28;20247;-59
2022/04/16 03:08:29;;;;;;;5.77;4.50;;;;;;;11.04;56.47;100221.66;4171617;28;20252;-58
2022/04/16 03:10:31;;;;;;;4.70;4.20;;;;;;;10.91;56.55;100232.66;4171354;28;20263;-59
2022/04/16 03:12:53;;;;;;;4.77;4.33;;;;;;;10.78;57.29;100221.53;4171338;28;20319;-58
2022/04/16 03:17:33;;;;;;;6.57;4.53;;;;;;;11.02;56.53;100220.13;4171701;28;20373;-59
2022/04/16 03:19:35;;;;;;;5.30;4.63;;;;;;;10.76;57.03;100245.59;4172026;28;20317;-59
2022/04/16 03:21:36;;;;;;;5.03;4.33;;;;;;;10.84;57.61;100215.63;4169813;28;20239;-59
2022/04/16 03:23:38;;;;;;;5.50;4.43;;;;;;;10.80;56.67;100241.69;4171032;28;20617;-59
2022/04/16 03:25:43;;;;;;;6.27;4.87;;;;;;;10.58;57.79;100239.38;4171604;28;20323;-59
2022/04/16 03:27:45;;;;;;;5.97;4.67;;;;;;;10.94;56.94;100204.91;4155941;28;20749;-60
2022/04/16 03:29:47;;;;;;;5.37;4.27;;;;;;;10.65;57.32;100234.28;4173692;28;20731;-60
2022/04/16 03:31:48;;;;;;;5.57;4.80;;;;;;;10.76;57.46;100213.69;4173091;28;20335;-59
2022/04/16 03:33:50;;;;;;;5.43;4.80;;;;;;;10.88;57.52;100189.53;4170455;28;20366;-59
2022/04/16 03:35:52;;;;;;;5.87;4.70;;;;;;;9.27;60.66;100265.56;4180280;28;20235;-59
2022/04/16 03:37:54;;;;;;;7.60;4.90;;;;;;;10.93;57.39;100173.97;4173662;28;20228;-60
2022/04/16 03:39:56;;;;;;;5.40;4.70;;;;;;;10.98;56.51;100204.44;4171962;28;20759;-59
2022/04/16 03:41:58;;;;;;;5.57;4.60;;;;;;;10.38;58.16;100227.97;4172980;28;20327;-59
2022/04/16 03:43:59;;;;;;;6.87;5.27;;;;;;;10.85;57.14;100197.81;4172993;28;20235;-59
2022/04/16 03:46:01;;;;;;;7.63;4.73;;;;;;;10.63;57.30;100229.13;4175622;28;20257;-59
2022/04/16 03:48:07;;;;;;;4.70;4.20;;;;;;;10.15;59.26;100220.38;4177081;28;20227;-60
2022/04/16 03:50:10;;;;;;;5.97;4.90;;;;;;;10.35;58.50;100223.81;4176270;28;20259;-60
2022/04/16 03:52:12;;;;;;;6.30;5.10;;;;;;;9.87;59.17;100262.81;4176388;28;20694;-59
2022/04/16 04:01:13;;;;;;;6.37;4.80;;;;;;;10.16;59.24;100216.75;4165911;28;20306;-60
2022/04/16 04:03:16;;;;;;;6.57;5.50;;;;;;;9.91;59.78;100228.84;4175344;28;20346;-60
2022/04/16 04:05:17;;;;;;;5.87;5.00;;;;;;;10.13;59.19;100224.16;4176374;28;20270;-59
2022/04/16 04:07:19;;;;;;;5.57;5.00;;;;;;;10.02;59.17;100244.59;4176060;28;20295;-63
2022/04/16 04:09:21;;;;;;;5.77;5.10;;;;;;;10.02;59.31;100249.06;4174507;28;20679;-60
2022/04/16 04:11:22;;;;;;;9.53;5.73;;;;;;;9.80;59.60;100243.09;4174695;28;20660;-58
2022/04/16 04:13:24;;;;;;;7.97;5.70;;;;;;;10.00;59.56;100233.28;4176087;28;20659;-61
2022/04/16 04:15:32;;;;;;;6.63;5.43;;;;;;;9.65;60.15;100248.00;4175526;28;20824;-60
2022/04/16 04:17:33;;;;;;;9.77;5.27;;;;;;;9.59;59.98;100258.38;4161760;28;20281;-61
2022/04/16 04:19:37;;;;;;;6.20;5.57;;;;;;;9.77;60.29;100219.47;4174336;28;20334;-61
2022/04/16 04:21:38;;;;;;;6.93;4.87;;;;;;;9.30;61.06;100264.44;4175494;28;20263;-61
2022/04/16 04:23:40;;;;;;;7.07;6.27;;;;;;;9.37;61.42;100236.38;4176109;28;20322;-62
2022/04/16 04:25:41;;;;;;;6.40;5.60;;;;;;;9.65;60.44;100232.06;4175494;28;20624;-62
2022/04/16 04:27:43;;;;;;;7.10;5.93;;;;;;;9.65;60.53;100233.88;4175031;28;20267;-62
2022/04/16 04:29:45;;;;;;;5.70;5.10;;;;;;;9.63;60.22;100255.25;4176064;28;20260;-61
2022/04/16 04:31:46;;;;;;;8.10;5.80;;;;;;;9.83;59.80;100244.63;4162647;28;20256;-61
2022/04/16 04:33:48;;;;;;;6.60;5.63;;;;;;;9.93;59.56;100239.31;4176523;28;20239;-60
2022/04/16 04:35:53;;;;;;;8.13;5.73;;;;;;;9.74;59.50;100269.38;4176566;28;20234;-61
2022/04/16 04:37:54;;;;;;;8.83;6.00;;;;;;;9.58;60.13;100272.56;4175568;28;20252;-61
2022/04/16 04:39:56;;;;;;;7.03;6.03;;;;;;;9.75;59.97;100245.34;4174882;28;20587;-61
2022/04/16 04:41:58;;;;;;;7.97;5.50;;;;;;;9.77;59.88;100253.16;4175433;28;20267;-61
2022/04/16 04:43:59;;;;;;;6.77;5.60;;;;;;;10.11;59.50;100234.94;4174258;28;20269;-61
2022/04/16 04:46:01;;;;;;;6.30;5.57;;;;;;;10.24;59.11;100246.09;4175739;28;20250;-60
2022/04/16 04:48:03;;;;;;;7.57;6.00;;;;;;;9.74;60.27;100274.69;4175973;28;20242;-61
2022/04/16 04:50:06;;;;;;;7.30;5.60;;;;;;;9.66;60.57;100273.56;4175349;28;20753;-60
2022/04/16 04:52:07;;;;;;;7.27;5.37;;;;;;;9.72;60.18;100263.38;4174787;28;20315;-60
2022/04/16 04:54:09;;;;;;;7.13;5.83;;;;;;;9.56;61.22;100255.94;4175198;28;20259;-59
2022/04/16 04:56:10;;;;;;;8.77;5.50;;;;;;;10.05;59.91;100233.69;4174474;28;20256;-61
2022/04/16 04:58:12;;;;;;;5.90;5.30;;;;;;;9.98;59.66;100248.53;4175516;28;20319;-60
2022/04/16 05:00:14;;;;;;;7.03;5.20;;;;;;;9.32;61.14;100297.84;4174715;28;20594;-62
2022/04/16 05:02:16;;;;;;;6.73;4.83;;;;;;;9.55;60.67;100291.44;4156159;28;20232;-61
2022/04/16 05:04:18;;;;;;;8.53;5.60;;;;;;;9.90;60.09;100259.03;4175171;28;20783;-60
2022/04/16 05:06:19;;;;;;;5.90;5.30;;;;;;;9.71;60.19;100298.88;4175483;28;20683;-62
2022/04/16 05:08:21;;;;;;;6.80;5.47;;;;;;;9.63;61.33;100271.19;4175261;28;20259;-62
2022/04/16 05:10:23;;;;;;;6.40;5.10;;;;;;;10.45;58.46;100245.03;4173849;28;20293;-60
2022/04/16 05:12:25;;;;;;;6.13;5.30;;;;;;;10.17;59.09;100273.38;4175127;28;20331;-60
2022/04/16 05:14:26;;;;;;;5.97;5.37;;;;;;;10.32;59.54;100233.88;4175620;28;20305;-61
2022/04/16 05:16:28;;;;;;;6.33;5.23;;;;;;;9.77;60.04;100303.63;4173784;28;20560;-61
2022/04/16 05:18:29;;;;;;;6.17;5.10;;;;;;;10.38;59.05;100244.78;4176850;28;20222;-62
2022/04/16 05:20:31;;;;;;;6.53;5.07;;;;;;;9.48;62.00;100278.69;4175969;28;20319;-62
2022/04/16 05:22:33;;;;;;;6.03;5.03;;;;;;;10.43;59.14;100246.97;4175217;28;20260;-60
2022/04/16 05:24:34;;;;;;;6.17;5.33;;;;;;;9.96;59.25;100297.44;4174379;28;20307;-61
2022/04/16 05:26:38;;;;;;;5.90;5.20;;;;;;;10.79;57.93;100226.69;4175143;28;20232;-60
2022/04/16 05:28:40;;;;;;;5.60;4.90;;;;;;;9.68;60.97;100307.97;4174942;28;20255;-61
2022/04/16 05:31:00;;;;;;;6.77;5.13;;;;;;;10.45;59.70;100253.00;4172979;28;20263;-61
2022/04/16 05:33:05;;;;;;;5.10;4.53;;;;;;;10.73;58.67;100237.88;4159000;28;20235;-61
2022/04/16 05:35:09;;;;;;;5.50;4.63;;;;;;;10.41;59.16;100278.19;4174799;28;20224;-61
2022/04/16 05:37:11;;;;;;;5.20;4.53;;;;;;;10.81;58.64;100239.84;4175023;28;20688;-61
2022/04/16 05:39:13;;;;;;;6.23;4.47;;;;;;;10.48;59.35;100287.28;4173135;28;20663;-61
2022/04/16 05:41:14;;;;;;;5.53;4.73;;;;;;;10.34;59.71;100293.88;4174306;28;20228;-60
2022/04/16 05:43:16;;;;;;;6.17;4.97;;;;;;;10.53;59.22;100289.50;4174419;28;20238;-61
2022/04/16 05:45:18;;;;;;;5.00;4.50;;;;;;;11.04;57.98;100250.06;4174605;28;20255;-61
2022/04/16 05:47:19;;;;;;;6.17;5.20;;;;;;;10.50;59.72;100285.31;4175902;28;20297;-61
2022/04/16 05:49:21;;;;;;;5.80;4.47;;;;;;;11.07;58.31;100253.28;4171674;28;20267;-61
2022/04/16 05:51:24;;;;;;;5.87;4.90;;;;;;;10.25;60.51;100319.50;4174973;28;20275;-61
2022/04/16 05:53:26;;;;;;;6.67;5.00;;;;;;;10.80;58.77;100275.41;4172062;28;20260;-62
2022/04/16 05:55:28;;;;;;;5.30;4.70;;;;;;;9.86;61.34;100332.00;4176565;28;20316;-61
2022/04/16 05:57:30;;;;;;;5.83;5.23;;;;;;;11.25;57.71;100245.31;4175440;28;20679;-61
2022/04/16 05:59:32;;;;;;;7.37;4.70;;;;;;;10.87;58.60;100273.84;4174575;28;20311;-62
2022/04/16 06:01:34;;;;;;;5.17;4.40;;;;;;;11.00;58.02;100281.47;4174872;28;20703;-61
2022/04/16 06:03:36;;;;;;;5.17;4.63;;;;;;;10.17;59.84;100347.78;4174323;28;20319;-61
2022/04/16 06:05:38;;;;;;;7.40;4.87;;;;;;;10.74;58.40;100307.91;4172571;28;20235;-62
2022/04/16 06:07:40;;;;;;;5.60;5.00;;;;;;;11.05;57.89;100271.22;4173936;28;20318;-62
2022/04/16 06:09:41;;;;;;;4.93;4.30;;;;;;;10.66;59.35;100321.91;4172956;28;20263;-60
2022/04/16 06:11:43;;;;;;;5.77;5.17;;;;;;;11.16;58.11;100268.34;4174465;28;20307;-61
2022/04/16 06:13:45;;;;;;;5.50;4.67;;;;;;;10.80;58.54;100316.16;4173754;28;20260;-61
2022/04/16 06:15:46;;;;;;;6.60;5.27;;;;;;;10.37;59.30;100367.19;4174700;28;20255;-61
2022/04/16 06:17:48;;;;;;;5.90;5.00;;;;;;;10.78;59.53;100323.47;4174525;28;20262;-60
2022/04/16 06:19:50;;;;;;;6.27;5.07;;;;;;;10.48;60.89;100355.56;4174377;28;20224;-62
2022/04/16 06:21:54;;;;;;;6.23;5.23;;;;;;;10.57;60.08;100336.94;4171345;28;20241;-62
2022/04/16 06:23:57;;;;;;;6.23;5.27;;;;;;;9.80;62.47;100367.91;4173724;28;20248;-62
2022/04/16 06:25:59;;;;;;;5.43;4.70;;;;;;;10.60;60.83;100323.34;4172614;28;20672;-61
2022/04/16 06:28:02;;;;;;;8.17;5.40;;;;;;;10.97;59.63;100303.03;4172823;28;20267;-62
2022/04/16 06:30:08;;;;;;;5.47;4.93;;;;;;;10.81;60.23;100320.47;4172732;28;20307;-62
2022/04/16 06:32:10;;;;;;;6.20;5.07;;;;;;;11.80;57.65;100259.47;4174413;28;20251;-61
2022/04/16 06:34:11;;;;;;;6.43;5.23;;;;;;;11.35;58.49;100293.16;4173676;28;20233;-60
2022/04/16 06:36:13;;;;;;;6.17;5.17;;;;;;;11.29;58.68;100302.59;4174141;28;20686;-60
2022/04/16 06:38:14;;;;;;;5.97;5.37;;;;;;;11.27;58.93;100307.22;4170489;28;20252;-62
2022/04/16 06:40:16;;;;;;;7.53;5.10;;;;;;;10.71;59.66;100366.69;4171634;28;20293;-61
2022/04/16 06:42:18;;;;;;;8.37;6.27;;;;;;;11.04;59.67;100309.47;4173032;28;20224;-61
2022/04/16 06:44:19;;;;;;;6.40;5.47;;;;;;;11.35;58.03;100296.66;4171719;28;20248;-61
2022/04/16 06:46:21;;;;;;;6.03;5.43;;;;;;;11.04;58.99;100335.22;4173292;28;20428;-61
2022/04/16 06:48:23;;;;;;;5.87;4.97;;;;;;;11.17;58.68;100322.41;4174558;28;20227;-60
2022/04/16 06:50:24;;;;;;;5.77;4.57;;;;;;;10.81;60.10;100349.75;4173205;28;20251;-61
2022/04/16 06:52:26;;;;;;;6.23;5.30;;;;;;;11.14;59.80;100331.53;4173059;28;20307;-61
2022/04/16 06:54:27;;;;;;;5.93;5.10;;;;;;;10.07;62.73;100400.94;4172259;28;20224;-60
2022/04/16 06:56:29;;;;;;;5.73;4.47;;;;;;;11.33;59.21;100309.28;4173214;28;20958;-62
2022/04/16 06:58:31;;;;;;;6.97;5.17;;;;;;;10.88;59.61;100362.47;4173342;28;20248;-62
2022/04/16 07:00:33;;;;;;;7.10;5.40;;;;;;;10.91;60.11;100363.00;4158197;28;20656;-61
2022/04/16 07:02:36;;;;;;;6.33;5.43;;;;;;;11.07;60.65;100337.59;4173422;28;20787;-62
2022/04/16 07:04:38;;;;;;;6.87;5.37;;;;;;;10.88;60.59;100363.31;4173380;28;20226;-62
2022/04/16 07:06:42;;;;;;;6.57;5.33;;;;;;;11.14;59.77;100334.22;4173550;28;20252;-62
2022/04/16 07:08:44;;;;;;;5.47;4.40;;;;;;;10.63;61.24;100386.88;4170979;28;20731;-62
2022/04/16 07:10:46;;;;;;;5.50;4.93;;;;;;;9.51;64.21;100450.16;4172552;28;20251;-61
2022/04/16 07:12:47;;;;;;;5.80;4.80;;;;;;;10.91;61.10;100328.44;4173110;28;20267;-61
2022/04/16 07:14:49;;;;;;;7.13;5.13;;;;;;;10.74;61.65;100359.25;4173513;28;20240;-62
2022/04/16 07:16:54;;;;;;;5.20;4.70;;;;;;;10.38;60.69;100398.97;4171357;28;20259;-62
2022/04/16 07:18:56;;;;;;;6.93;5.20;;;;;;;10.07;62.32;100391.13;4174512;28;20289;-62
2022/04/16 07:20:57;;;;;;;5.30;4.63;;;;;;;10.83;60.52;100344.28;4171847;28;20274;-62
2022/04/16 07:22:59;;;;;;;6.17;4.80;;;;;;;9.29;63.98;100472.44;4176796;28;20314;-62
2022/04/16 07:25:00;;;;;;;6.83;4.83;;;;;;;10.24;62.67;100394.06;4176642;28;20769;-61
2022/04/16 07:27:02;;;;;;;7.90;4.77;;;;;;;9.71;64.72;100389.19;4176275;28;20321;-61
2022/04/16 07:29:04;;;;;;;6.73;5.03;;;;;;;10.51;62.27;100340.16;4177301;28;20646;-62
2022/04/16 07:31:05;;;;;;;5.90;4.93;;;;;;;10.77;62.00;100336.91;4176678;28;20263;-61
2022/04/16 07:33:07;;;;;;;5.20;4.70;;;;;;;10.56;62.40;100372.47;4176345;28;20232;-60
2022/04/16 07:35:09;;;;;;;5.63;4.60;;;;;;;11.25;60.83;100308.38;4178063;28;20720;-62
2022/04/16 07:37:11;;;;;;;6.60;5.07;;;;;;;10.99;61.53;100315.22;4176732;28;20743;-61
2022/04/16 07:39:13;;;;;;;5.60;4.77;;;;;;;10.70;62.83;100341.06;4175710;28;20324;-61
2022/04/16 07:41:15;;;;;;;7.30;4.63;;;;;;;10.35;63.25;100396.59;4177290;28;20232;-62
2022/04/16 07:43:16;;;;;;;6.33;5.07;;;;;;;10.31;64.03;100376.56;4176192;28;20266;-62
2022/04/16 07:45:18;;;;;;;8.50;5.17;;;;;;;11.82;59.73;100281.44;4174984;28;20254;-62
2022/04/16 07:47:20;;;;;;;6.77;5.10;;;;;;;11.39;60.40;100307.84;4177114;28;20238;-61
2022/04/16 07:49:21;;;;;;;5.97;4.57;;;;;;;10.94;62.03;100352.09;4173999;28;20275;-61
2022/04/16 07:51:24;;;;;;;5.67;5.07;;;;;;;11.15;61.63;100332.38;4176944;28;20691;-62
2022/04/16 07:53:25;;;;;;;6.53;4.83;;;;;;;11.02;62.30;100327.41;4176863;28;20239;-61
2022/04/16 07:55:28;;;;;;;6.90;5.10;;;;;;;11.53;60.68;100306.50;4175819;28;20310;-62
2022/04/16 07:57:29;;;;;;;7.43;4.60;;;;;;;11.01;62.24;100343.53;4176695;28;20238;-62
2022/04/16 07:59:32;;;;;;;6.10;4.93;;;;;;;10.50;61.58;100391.66;4176789;28;20247;-61
2022/04/16 08:01:33;;;;;;;6.37;5.20;;;;;;;10.77;63.50;100360.84;4175940;28;20259;-61
2022/04/16 08:03:35;;;;;;;6.53;4.90;;;;;;;11.01;61.69;100347.00;4181536;28;20264;-62
2022/04/16 08:05:37;;;;;;;6.00;4.93;;;;;;;11.44;61.06;100326.03;4176518;28;20281;-61
2022/04/16 08:07:38;;;;;;;8.50;5.23;;;;;;;11.84;59.58;100304.31;4176290;28;20317;-61
2022/04/16 08:09:40;;;;;;;6.00;4.90;;;;;;;10.63;62.81;100428.59;4175778;28;20276;-61
2022/04/16 08:11:42;;;;;;;6.33;5.30;;;;;;;11.95;60.06;100302.38;4176535;28;20775;-60
2022/04/16 08:13:44;;;;;;;7.00;4.93;;;;;;;11.77;59.75;100310.38;4175925;28;20235;-60
2022/04/16 08:15:46;;;;;;;6.50;5.03;;;;;;;11.59;60.48;100348.50;4176286;28;20252;-61
2022/04/16 08:17:48;;;;;;;8.53;5.33;;;;;;;11.77;60.19;100321.03;4174821;28;20287;-60
2022/04/16 08:19:49;;;;;;;5.97;5.17;;;;;;;10.91;63.48;100412.75;4175372;28;20466;-60
2022/04/16 08:21:53;;;;;;;8.50;5.17;;;;;;;11.49;61.22;100361.03;4175924;28;20331;-60
2022/04/16 08:24:12;;;;;;;6.93;5.37;;;;;;;11.73;61.49;100334.66;4175658;28;20271;-61
2022/04/16 08:26:14;;;;;;;7.07;5.30;;;;;;;11.80;61.98;100332.22;4176088;28;20673;-61
2022/04/16 08:28:15;;;;;;;7.70;6.13;;;;;;;11.55;61.61;100371.09;4176365;28;20258;-62
2022/04/16 08:30:18;;;;;;;7.77;5.40;;;;;;;11.50;62.12;100373.38;4175023;28;20668;-60
2022/04/16 08:32:20;;;;;;;6.43;5.10;;;;;;;10.85;63.04;100426.59;4164489;28;20256;-61
2022/04/16 08:34:24;;;;;;;7.53;5.27;;;;;;;11.38;61.93;100404.69;4173370;28;20266;-62
2022/04/16 08:36:26;;;;;;;7.20;5.40;;;;;;;10.41;64.40;100483.75;4175867;28;20322;-62
2022/04/16 08:38:28;;;;;;;8.47;5.40;;;;;;;11.40;62.58;100375.25;4175183;28;20269;-60
2022/04/16 08:40:29;;;;;;;6.13;4.90;;;;;;;10.85;62.87;100427.44;4175449;28;20779;-61
2022/04/16 08:42:36;;;;;;;6.90;5.20;;;;;;;10.32;64.07;100473.13;4174589;28;20697;-61
2022/04/16 08:44:39;;;;;;;6.43;4.97;;;;;;;11.91;61.12;100332.03;4174743;28;20724;-62
2022/04/16 08:46:41;;;;;;;6.53;5.07;;;;;;;11.30;61.34;100378.81;4176452;28;20339;-60
2022/04/16 08:48:43;;;;;;;7.77;5.23;;;;;;;11.25;61.90;100407.69;4175123;28;20627;-60
2022/04/16 08:50:46;;;;;;;7.53;4.67;;;;;;;11.73;60.40;100355.13;4174100;28;20279;-61
2022/04/16 08:52:48;;;;;;;6.07;5.17;;;;;;;11.64;60.94;100364.84;4175606;28;20322;-62
2022/04/16 08:54:50;;;;;;;5.20;4.43;;;;;;;11.74;59.74;100336.31;4175235;28;20258;-60
2022/04/16 08:56:52;;;;;;;6.07;4.60;;;;;;;11.89;59.83;100341.16;4174874;28;20240;-61
2022/04/16 08:58:53;;;;;;;6.27;4.30;;;;;;;12.43;58.43;100309.06;4159458;28;20298;-62
2022/04/16 09:00:56;;;;;;;5.90;4.43;;;;;;;11.17;61.07;100421.75;4174926;28;20264;-59
2022/04/16 09:03:02;;;;;;;6.53;4.30;;;;;;;11.87;59.67;100356.47;4175866;28;20236;-62
2022/04/16 09:05:08;;;;;;;5.97;4.43;;;;;;;11.78;60.29;100360.84;4173608;28;20220;-61
2022/04/16 09:07:10;;;;;;;4.73;3.70;;;;;;;12.68;57.70;100318.03;4173676;28;20315;-62
2022/04/16 09:09:12;;;;;;;5.77;4.53;;;;;;;11.70;60.04;100393.56;4174568;28;20252;-62
2022/04/16 09:11:14;;;;;;;5.27;4.57;;;;;;;13.06;57.25;100309.72;4175351;28;20323;-62
2022/04/16 09:13:21;;;;;;;5.23;4.07;;;;;;;12.06;59.48;100379.44;4159656;28;20240;-61
2022/04/16 09:15:24;;;;;;;5.73;4.20;;;;;;;11.84;60.83;100407.34;4175911;28;20231;-62
2022/04/16 09:17:26;;;;;;;5.40;4.63;;;;;;;12.39;59.94;100358.38;4174965;28;20322;-62
2022/04/16 09:19:29;;;;;;;5.13;4.03;;;;;;;12.42;59.51;100345.56;4174957;28;20232;-61
2022/04/16 09:21:31;;;;;;;5.73;4.70;;;;;;;13.21;57.48;100294.75;4175809;28;20315;-62
2022/04/16 09:23:32;;;;;;;5.47;4.47;;;;;;;11.27;59.81;100458.97;4173351;28;20267;-61
2022/04/16 09:25:34;;;;;;;6.80;4.87;;;;;;;11.80;59.70;100395.34;4174997;28;20244;-62
2022/04/16 09:27:46;;;;;;;6.50;4.63;;;;;;;12.88;57.46;100304.50;4174521;28;20668;-60
2022/04/16 09:29:47;;;;;;;10.20;4.70;;;;;;;12.85;58.12;100326.97;4174541;28;20315;-61
2022/04/16 09:31:51;;;;;;;4.90;3.90;;;;;;;12.44;57.78;100343.56;4175807;28;20247;-62
2022/04/16 09:33:53;;;;;;;8.57;5.33;;;;;;;12.62;57.86;100342.66;4175868;28;20283;-61
2022/04/16 09:35:55;;;;;;;5.50;4.60;;;;;;;11.79;57.14;100410.47;4176539;28;20235;-60
2022/04/16 09:37:58;;;;;;;5.87;4.77;;;;;;;13.22;57.04;100305.25;4176524;28;20228;-62
2022/04/16 09:40:11;;;;;;;5.60;4.67;;;;;;;12.34;56.00;100366.03;4172013;28;20700;-62
2022/04/16 09:42:24;;;;;;;6.70;4.63;;;;;;;13.29;54.98;100285.94;4174298;28;20273;-61